sensor_id;sensor_type;location;lat;lon;timestamp;temperature;humidity
54178;DHT22;40085;53.004;6.770;2023-04-25T00:01:11;6.60;99.90
54178;DHT22;40085;53.004;6.770;2023-04-25T00:03:38;6.60;99.90
54178;DHT22;40085;53.004;6.770;2023-04-25T00:06:05;6.70;99.90
54178;DHT22;40085;53.004;6.770;2023-04-25T00:08:32;6.60;99.90
54178;DHT22;40085;53.004;6.770;2023-04-25T00:10:58;6.60;99.90
54178;DHT22;40085;53.004;6.770;2023-04-25T00:13:24;6.60;99.90
54178;DHT22;40085;53.004;6.770;2023-04-25T00:15:51;6.60;99.90
54178;DHT22;40085;53.004;6.770;2023-04-25T00:18:21;6.60;99.90
54178;DHT22;40085;53.004;6.770;2023-04-25T00:20:47;6.70;99.90
54178;DHT22;40085;53.004;6.770;2023-04-25T00:23:14;6.70;99.90
54178;DHT22;40085;53.004;6.770;2023-04-25T00:25:49;6.70;99.90
54178;DHT22;40085;53.004;6.770;2023-04-25T00:28:15;6.70;99.90
54178;DHT22;40085;53.004;6.770;2023-04-25T00:30:41;6.70;99.90
54178;DHT22;40085;53.004;6.770;2023-04-25T00:33:07;6.70;99.90
54178;DHT22;40085;53.004;6.770;2023-04-25T00:35:33;6.70;99.90
54178;DHT22;40085;53.004;6.770;2023-04-25T00:37:59;6.60;99.90
54178;DHT22;40085;53.004;6.770;2023-04-25T00:40:25;6.60;99.90
54178;DHT22;40085;53.004;6.770;2023-04-25T00:42:52;6.60;99.90
54178;DHT22;40085;53.004;6.770;2023-04-25T00:45:18;6.50;99.90
54178;DHT22;40085;53.004;6.770;2023-04-25T00:47:44;7.80;99.90
54178;DHT22;40085;53.004;6.770;2023-04-25T00:50:10;6.50;99.90
54178;DHT22;40085;53.004;6.770;2023-04-25T00:52:39;6.60;99.90
54178;DHT22;40085;53.004;6.770;2023-04-25T00:55:07;6.50;99.90
54178;DHT22;40085;53.004;6.770;2023-04-25T00:57:33;6.50;99.90
54178;DHT22;40085;53.004;6.770;2023-04-25T00:59:59;6.50;99.90
54178;DHT22;40085;53.004;6.770;2023-04-25T01:02:25;6.50;99.90
54178;DHT22;40085;53.004;6.770;2023-04-25T01:04:52;6.50;99.90
54178;DHT22;40085;53.004;6.770;2023-04-25T01:07:18;6.50;99.90
54178;DHT22;40085;53.004;6.770;2023-04-25T01:09:44;6.50;99.90
54178;DHT22;40085;53.004;6.770;2023-04-25T01:12:09;6.50;99.90
54178;DHT22;40085;53.004;6.770;2023-04-25T01:14:35;6.40;99.90
54178;DHT22;40085;53.004;6.770;2023-04-25T01:17:01;6.40;99.90
54178;DHT22;40085;53.004;6.770;2023-04-25T01:19:27;6.40;99.90
54178;DHT22;40085;53.004;6.770;2023-04-25T01:21:52;6.40;99.90
54178;DHT22;40085;53.004;6.770;2023-04-25T01:24:18;6.40;99.90
54178;DHT22;40085;53.004;6.770;2023-04-25T01:26:44;6.40;99.90
54178;DHT22;40085;53.004;6.770;2023-04-25T01:29:16;6.40;99.90
54178;DHT22;40085;53.004;6.770;2023-04-25T01:31:41;6.40;99.90
54178;DHT22;40085;53.004;6.770;2023-04-25T01:34:07;6.30;99.90
54178;DHT22;40085;53.004;6.770;2023-04-25T01:36:34;6.30;99.90
54178;DHT22;40085;53.004;6.770;2023-04-25T01:39:01;6.30;99.90
54178;DHT22;40085;53.004;6.770;2023-04-25T01:41:27;6.20;99.90
54178;DHT22;40085;53.004;6.770;2023-04-25T01:43:53;6.20;99.90
54178;DHT22;40085;53.004;6.770;2023-04-25T01:46:18;6.10;99.90
54178;DHT22;40085;53.004;6.770;2023-04-25T01:48:44;6.10;99.90
54178;DHT22;40085;53.004;6.770;2023-04-25T01:51:10;6.10;99.90
54178;DHT22;40085;53.004;6.770;2023-04-25T01:53:37;6.10;99.90
54178;DHT22;40085;53.004;6.770;2023-04-25T01:56:03;6.10;99.90
54178;DHT22;40085;53.004;6.770;2023-04-25T01:58:28;6.10;99.90
54178;DHT22;40085;53.004;6.770;2023-04-25T02:00:54;6.10;99.90
54178;DHT22;40085;53.004;6.770;2023-04-25T02:03:20;6.10;99.90
54178;DHT22;40085;53.004;6.770;2023-04-25T02:05:45;6.10;99.90
54178;DHT22;40085;53.004;6.770;2023-04-25T02:08:11;6.10;99.90
54178;DHT22;40085;53.004;6.770;2023-04-25T02:10:37;6.10;99.90
54178;DHT22;40085;53.004;6.770;2023-04-25T02:13:03;6.10;99.90
54178;DHT22;40085;53.004;6.770;2023-04-25T02:15:30;6.10;99.90
54178;DHT22;40085;53.004;6.770;2023-04-25T02:17:56;6.10;99.90
54178;DHT22;40085;53.004;6.770;2023-04-25T02:20:24;6.10;99.90
54178;DHT22;40085;53.004;6.770;2023-04-25T02:22:50;6.10;99.90
54178;DHT22;40085;53.004;6.770;2023-04-25T02:25:17;6.00;99.90
54178;DHT22;40085;53.004;6.770;2023-04-25T02:27:45;6.00;99.90
54178;DHT22;40085;53.004;6.770;2023-04-25T02:30:11;6.00;99.90
54178;DHT22;40085;53.004;6.770;2023-04-25T02:32:37;6.00;99.90
54178;DHT22;40085;53.004;6.770;2023-04-25T02:35:03;6.00;99.90
54178;DHT22;40085;53.004;6.770;2023-04-25T02:37:33;6.00;99.90
54178;DHT22;40085;53.004;6.770;2023-04-25T02:39:59;6.00;99.90
54178;DHT22;40085;53.004;6.770;2023-04-25T02:42:26;5.90;99.90
54178;DHT22;40085;53.004;6.770;2023-04-25T02:44:51;5.90;99.90
54178;DHT22;40085;53.004;6.770;2023-04-25T02:47:17;5.90;99.90
54178;DHT22;40085;53.004;6.770;2023-04-25T02:49:43;5.90;99.90
54178;DHT22;40085;53.004;6.770;2023-04-25T02:52:08;5.90;99.90
54178;DHT22;40085;53.004;6.770;2023-04-25T02:54:34;5.90;99.90
54178;DHT22;40085;53.004;6.770;2023-04-25T02:57:00;5.90;99.90
54178;DHT22;40085;53.004;6.770;2023-04-25T02:59:26;5.90;99.90
54178;DHT22;40085;53.004;6.770;2023-04-25T03:01:51;5.90;99.90
54178;DHT22;40085;53.004;6.770;2023-04-25T03:04:17;5.90;99.90
54178;DHT22;40085;53.004;6.770;2023-04-25T03:06:44;5.90;99.90
54178;DHT22;40085;53.004;6.770;2023-04-25T03:09:10;5.90;99.90
54178;DHT22;40085;53.004;6.770;2023-04-25T03:11:38;5.90;99.90
54178;DHT22;40085;53.004;6.770;2023-04-25T03:14:03;5.90;99.90
54178;DHT22;40085;53.004;6.770;2023-04-25T03:16:29;5.80;99.90
54178;DHT22;40085;53.004;6.770;2023-04-25T03:18:54;5.90;99.90
54178;DHT22;40085;53.004;6.770;2023-04-25T03:21:20;5.90;99.90
54178;DHT22;40085;53.004;6.770;2023-04-25T03:23:46;5.90;99.90
54178;DHT22;40085;53.004;6.770;2023-04-25T03:26:11;5.90;99.90
54178;DHT22;40085;53.004;6.770;2023-04-25T03:28:37;5.90;99.90
54178;DHT22;40085;53.004;6.770;2023-04-25T03:31:03;5.80;99.90
54178;DHT22;40085;53.004;6.770;2023-04-25T03:33:28;5.90;99.90
54178;DHT22;40085;53.004;6.770;2023-04-25T03:35:54;5.90;99.90
54178;DHT22;40085;53.004;6.770;2023-04-25T03:38:19;5.90;99.90
54178;DHT22;40085;53.004;6.770;2023-04-25T03:40:45;5.90;99.90
54178;DHT22;40085;53.004;6.770;2023-04-25T03:43:10;5.90;99.90
54178;DHT22;40085;53.004;6.770;2023-04-25T03:45:36;5.80;99.90
54178;DHT22;40085;53.004;6.770;2023-04-25T03:48:02;5.80;99.90
54178;DHT22;40085;53.004;6.770;2023-04-25T03:50:28;5.80;99.90
54178;DHT22;40085;53.004;6.770;2023-04-25T03:52:53;5.80;99.90
54178;DHT22;40085;53.004;6.770;2023-04-25T03:55:19;5.80;99.90
54178;DHT22;40085;53.004;6.770;2023-04-25T03:57:45;5.80;99.90
54178;DHT22;40085;53.004;6.770;2023-04-25T04:00:11;5.80;99.90
54178;DHT22;40085;53.004;6.770;2023-04-25T04:02:37;5.80;99.90
54178;DHT22;40085;53.004;6.770;2023-04-25T04:05:04;5.80;99.90
54178;DHT22;40085;53.004;6.770;2023-04-25T04:07:31;5.80;99.90
54178;DHT22;40085;53.004;6.770;2023-04-25T04:09:58;5.80;99.90
54178;DHT22;40085;53.004;6.770;2023-04-25T04:12:24;5.80;99.90
54178;DHT22;40085;53.004;6.770;2023-04-25T04:14:50;5.80;99.90
54178;DHT22;40085;53.004;6.770;2023-04-25T04:17:15;5.80;99.90
54178;DHT22;40085;53.004;6.770;2023-04-25T04:19:41;5.70;99.90
54178;DHT22;40085;53.004;6.770;2023-04-25T04:22:07;5.70;99.90
54178;DHT22;40085;53.004;6.770;2023-04-25T04:24:32;5.70;99.90
54178;DHT22;40085;53.004;6.770;2023-04-25T04:26:58;5.60;99.90
54178;DHT22;40085;53.004;6.770;2023-04-25T04:29:24;5.60;99.90
54178;DHT22;40085;53.004;6.770;2023-04-25T04:31:51;5.50;99.90
54178;DHT22;40085;53.004;6.770;2023-04-25T04:34:18;5.50;99.90
54178;DHT22;40085;53.004;6.770;2023-04-25T04:36:44;5.40;99.90
54178;DHT22;40085;53.004;6.770;2023-04-25T04:39:12;5.40;99.90
54178;DHT22;40085;53.004;6.770;2023-04-25T04:41:37;5.50;99.90
54178;DHT22;40085;53.004;6.770;2023-04-25T04:44:04;5.40;99.90
54178;DHT22;40085;53.004;6.770;2023-04-25T04:46:29;5.90;99.90
54178;DHT22;40085;53.004;6.770;2023-04-25T04:49:04;5.40;99.90
54178;DHT22;40085;53.004;6.770;2023-04-25T04:51:30;5.40;99.90
54178;DHT22;40085;53.004;6.770;2023-04-25T04:53:56;5.40;99.90
54178;DHT22;40085;53.004;6.770;2023-04-25T04:56:24;5.40;99.90
54178;DHT22;40085;53.004;6.770;2023-04-25T04:58:51;5.40;99.90
54178;DHT22;40085;53.004;6.770;2023-04-25T05:01:17;5.30;99.90
54178;DHT22;40085;53.004;6.770;2023-04-25T05:03:43;5.30;99.90
54178;DHT22;40085;53.004;6.770;2023-04-25T05:06:09;5.30;99.90
54178;DHT22;40085;53.004;6.770;2023-04-25T05:08:35;5.30;99.90
54178;DHT22;40085;53.004;6.770;2023-04-25T05:11:01;6.40;99.90
54178;DHT22;40085;53.004;6.770;2023-04-25T05:13:27;5.30;99.90
54178;DHT22;40085;53.004;6.770;2023-04-25T05:15:52;5.30;99.90
54178;DHT22;40085;53.004;6.770;2023-04-25T05:18:18;5.30;99.90
54178;DHT22;40085;53.004;6.770;2023-04-25T05:20:44;5.30;99.90
54178;DHT22;40085;53.004;6.770;2023-04-25T05:23:09;5.40;99.90
54178;DHT22;40085;53.004;6.770;2023-04-25T05:25:35;5.40;99.90
54178;DHT22;40085;53.004;6.770;2023-04-25T05:28:00;5.40;99.90
54178;DHT22;40085;53.004;6.770;2023-04-25T05:30:26;5.40;99.90
54178;DHT22;40085;53.004;6.770;2023-04-25T05:32:51;5.40;99.90
54178;DHT22;40085;53.004;6.770;2023-04-25T05:35:17;5.50;99.90
54178;DHT22;40085;53.004;6.770;2023-04-25T05:37:43;5.50;99.90
54178;DHT22;40085;53.004;6.770;2023-04-25T05:40:09;6.20;99.90
54178;DHT22;40085;53.004;6.770;2023-04-25T05:42:35;5.60;99.90
54178;DHT22;40085;53.004;6.770;2023-04-25T05:45:00;5.60;99.90
54178;DHT22;40085;53.004;6.770;2023-04-25T05:47:26;5.60;99.90
54178;DHT22;40085;53.004;6.770;2023-04-25T05:49:52;5.60;99.90
54178;DHT22;40085;53.004;6.770;2023-04-25T05:52:17;5.60;99.90
54178;DHT22;40085;53.004;6.770;2023-04-25T05:54:43;5.60;99.90
54178;DHT22;40085;53.004;6.770;2023-04-25T05:57:08;5.60;99.90
54178;DHT22;40085;53.004;6.770;2023-04-25T05:59:34;5.70;99.90
54178;DHT22;40085;53.004;6.770;2023-04-25T06:02:00;5.70;99.90
54178;DHT22;40085;53.004;6.770;2023-04-25T06:04:26;5.80;99.90
54178;DHT22;40085;53.004;6.770;2023-04-25T06:06:51;5.90;99.90
54178;DHT22;40085;53.004;6.770;2023-04-25T06:09:17;6.00;99.90
54178;DHT22;40085;53.004;6.770;2023-04-25T06:11:42;6.10;99.90
54178;DHT22;40085;53.004;6.770;2023-04-25T06:14:08;6.20;99.90
54178;DHT22;40085;53.004;6.770;2023-04-25T06:16:34;6.30;99.90
54178;DHT22;40085;53.004;6.770;2023-04-25T06:18:59;6.30;99.90
54178;DHT22;40085;53.004;6.770;2023-04-25T06:21:25;6.30;99.90
54178;DHT22;40085;53.004;6.770;2023-04-25T06:23:51;6.50;99.90
54178;DHT22;40085;53.004;6.770;2023-04-25T06:26:16;6.40;99.90
54178;DHT22;40085;53.004;6.770;2023-04-25T06:28:42;6.60;99.90
54178;DHT22;40085;53.004;6.770;2023-04-25T06:31:07;6.60;99.90
54178;DHT22;40085;53.004;6.770;2023-04-25T06:33:33;6.80;99.90
54178;DHT22;40085;53.004;6.770;2023-04-25T06:35:59;6.90;99.90
54178;DHT22;40085;53.004;6.770;2023-04-25T06:38:25;7.10;99.90
54178;DHT22;40085;53.004;6.770;2023-04-25T06:40:50;7.20;99.90
54178;DHT22;40085;53.004;6.770;2023-04-25T06:43:16;7.10;99.90
54178;DHT22;40085;53.004;6.770;2023-04-25T06:45:42;7.00;99.90
54178;DHT22;40085;53.004;6.770;2023-04-25T06:48:07;7.60;55.10
54178;DHT22;40085;53.004;6.770;2023-04-25T06:50:33;6.90;1.00
54178;DHT22;40085;53.004;6.770;2023-04-25T06:52:59;7.10;8.20
54178;DHT22;40085;53.004;6.770;2023-04-25T06:55:27;7.20;1.00
54178;DHT22;40085;53.004;6.770;2023-04-25T06:57:52;7.40;3.80
54178;DHT22;40085;53.004;6.770;2023-04-25T07:00:18;7.60;1.00
54178;DHT22;40085;53.004;6.770;2023-04-25T07:02:44;7.70;1.00
54178;DHT22;40085;53.004;6.770;2023-04-25T07:05:10;7.60;99.90
54178;DHT22;40085;53.004;6.770;2023-04-25T07:07:35;7.80;99.90
54178;DHT22;40085;53.004;6.770;2023-04-25T07:10:01;7.90;1.00
54178;DHT22;40085;53.004;6.770;2023-04-25T07:12:27;8.00;1.00
54178;DHT22;40085;53.004;6.770;2023-04-25T07:14:52;7.90;99.90
54178;DHT22;40085;53.004;6.770;2023-04-25T07:17:18;7.90;99.90
54178;DHT22;40085;53.004;6.770;2023-04-25T07:19:44;7.90;99.90
54178;DHT22;40085;53.004;6.770;2023-04-25T07:22:10;6.10;99.90
54178;DHT22;40085;53.004;6.770;2023-04-25T07:24:35;8.10;99.90
54178;DHT22;40085;53.004;6.770;2023-04-25T07:27:01;8.30;99.90
54178;DHT22;40085;53.004;6.770;2023-04-25T07:29:27;8.40;99.90
54178;DHT22;40085;53.004;6.770;2023-04-25T07:31:53;8.30;99.90
54178;DHT22;40085;53.004;6.770;2023-04-25T07:34:19;8.10;25.00
54178;DHT22;40085;53.004;6.770;2023-04-25T07:36:45;7.80;99.90
54178;DHT22;40085;53.004;6.770;2023-04-25T07:39:11;7.70;99.90
54178;DHT22;40085;53.004;6.770;2023-04-25T07:41:36;7.60;99.90
54178;DHT22;40085;53.004;6.770;2023-04-25T07:44:02;7.80;99.90
54178;DHT22;40085;53.004;6.770;2023-04-25T07:46:28;8.00;99.90
54178;DHT22;40085;53.004;6.770;2023-04-25T07:48:53;8.10;1.00
54178;DHT22;40085;53.004;6.770;2023-04-25T07:51:19;8.40;1.00
54178;DHT22;40085;53.004;6.770;2023-04-25T07:53:45;8.50;99.90
54178;DHT22;40085;53.004;6.770;2023-04-25T07:56:11;8.70;1.00
54178;DHT22;40085;53.004;6.770;2023-04-25T07:58:37;8.70;99.90
54178;DHT22;40085;53.004;6.770;2023-04-25T08:01:03;8.70;99.90
54178;DHT22;40085;53.004;6.770;2023-04-25T08:03:28;8.60;99.90
54178;DHT22;40085;53.004;6.770;2023-04-25T08:05:54;8.60;99.90
54178;DHT22;40085;53.004;6.770;2023-04-25T08:08:20;8.60;99.90
54178;DHT22;40085;53.004;6.770;2023-04-25T08:10:45;8.60;1.00
54178;DHT22;40085;53.004;6.770;2023-04-25T08:13:11;8.50;1.00
54178;DHT22;40085;53.004;6.770;2023-04-25T08:15:37;8.50;1.00
54178;DHT22;40085;53.004;6.770;2023-04-25T08:18:02;8.50;1.00
54178;DHT22;40085;53.004;6.770;2023-04-25T08:20:28;8.50;1.00
54178;DHT22;40085;53.004;6.770;2023-04-25T08:22:53;8.50;99.90
54178;DHT22;40085;53.004;6.770;2023-04-25T08:25:19;8.50;99.90
54178;DHT22;40085;53.004;6.770;2023-04-25T08:27:45;8.50;99.90
54178;DHT22;40085;53.004;6.770;2023-04-25T08:30:10;8.40;99.90
54178;DHT22;40085;53.004;6.770;2023-04-25T08:32:36;8.70;99.90
54178;DHT22;40085;53.004;6.770;2023-04-25T08:35:04;8.90;99.90
54178;DHT22;40085;53.004;6.770;2023-04-25T08:37:29;9.00;1.00
54178;DHT22;40085;53.004;6.770;2023-04-25T08:39:55;9.10;99.90
54178;DHT22;40085;53.004;6.770;2023-04-25T08:42:21;9.30;1.00
54178;DHT22;40085;53.004;6.770;2023-04-25T08:44:49;9.40;99.90
54178;DHT22;40085;53.004;6.770;2023-04-25T08:47:14;9.40;95.30
54178;DHT22;40085;53.004;6.770;2023-04-25T08:49:45;9.60;99.90
54178;DHT22;40085;53.004;6.770;2023-04-25T08:52:13;10.90;68.40
54178;DHT22;40085;53.004;6.770;2023-04-25T08:54:43;9.80;1.00
54178;DHT22;40085;53.004;6.770;2023-04-25T08:57:11;9.30;88.70
54178;DHT22;40085;53.004;6.770;2023-04-25T08:59:37;8.90;70.40
54178;DHT22;40085;53.004;6.770;2023-04-25T09:02:04;8.40;99.90
54178;DHT22;40085;53.004;6.770;2023-04-25T09:04:33;8.00;99.90
54178;DHT22;40085;53.004;6.770;2023-04-25T09:06:58;7.80;1.00
54178;DHT22;40085;53.004;6.770;2023-04-25T09:09:24;7.60;1.00
54178;DHT22;40085;53.004;6.770;2023-04-25T09:11:50;7.40;1.00
54178;DHT22;40085;53.004;6.770;2023-04-25T09:14:21;7.40;99.90
54178;DHT22;40085;53.004;6.770;2023-04-25T09:19:33;7.80;99.90
54178;DHT22;40085;53.004;6.770;2023-04-25T09:22:02;8.20;99.90
54178;DHT22;40085;53.004;6.770;2023-04-25T09:24:39;8.20;1.00
54178;DHT22;40085;53.004;6.770;2023-04-25T09:27:06;8.20;99.90
54178;DHT22;40085;53.004;6.770;2023-04-25T09:29:34;8.30;99.90
54178;DHT22;40085;53.004;6.770;2023-04-25T09:34:48;8.30;1.00
54178;DHT22;40085;53.004;6.770;2023-04-25T09:39:53;8.40;1.00
54178;DHT22;40085;53.004;6.770;2023-04-25T09:42:22;8.50;99.90
54178;DHT22;40085;53.004;6.770;2023-04-25T09:44:52;8.50;99.90
54178;DHT22;40085;53.004;6.770;2023-04-25T09:47:18;8.40;1.00
54178;DHT22;40085;53.004;6.770;2023-04-25T09:49:46;8.50;99.90
54178;DHT22;40085;53.004;6.770;2023-04-25T09:52:22;8.40;99.90
54178;DHT22;40085;53.004;6.770;2023-04-25T09:54:49;8.70;99.90
54178;DHT22;40085;53.004;6.770;2023-04-25T09:57:19;9.00;99.90
54178;DHT22;40085;53.004;6.770;2023-04-25T09:59:55;9.30;99.90
54178;DHT22;40085;53.004;6.770;2023-04-25T10:02:23;9.40;1.00
54178;DHT22;40085;53.004;6.770;2023-04-25T10:12:16;8.30;99.90
54178;DHT22;40085;53.004;6.770;2023-04-25T10:14:42;8.10;15.70
54178;DHT22;40085;53.004;6.770;2023-04-25T10:17:10;7.10;1.00
54178;DHT22;40085;53.004;6.770;2023-04-25T10:19:37;6.50;17.00
54178;DHT22;40085;53.004;6.770;2023-04-25T10:22:14;6.20;53.30
54178;DHT22;40085;53.004;6.770;2023-04-25T10:24:41;5.80;51.30
54178;DHT22;40085;53.004;6.770;2023-04-25T10:27:08;6.10;82.20
54178;DHT22;40085;53.004;6.770;2023-04-25T10:29:35;6.20;86.90
54178;DHT22;40085;53.004;6.770;2023-04-25T10:32:00;6.30;93.70
54178;DHT22;40085;53.004;6.770;2023-04-25T10:34:43;6.30;82.70
54178;DHT22;40085;53.004;6.770;2023-04-25T10:37:12;6.60;88.70
54178;DHT22;40085;53.004;6.770;2023-04-25T10:39:41;7.10;87.60
54178;DHT22;40085;53.004;6.770;2023-04-25T10:42:07;7.20;99.90
54178;DHT22;40085;53.004;6.770;2023-04-25T10:44:34;7.60;95.40
54178;DHT22;40085;53.004;6.770;2023-04-25T10:47:01;8.00;83.90
54178;DHT22;40085;53.004;6.770;2023-04-25T10:49:41;8.30;1.00
54178;DHT22;40085;53.004;6.770;2023-04-25T10:52:18;8.90;52.10
54178;DHT22;40085;53.004;6.770;2023-04-25T10:54:52;9.10;99.90
54178;DHT22;40085;53.004;6.770;2023-04-25T10:57:38;9.30;99.90
54178;DHT22;40085;53.004;6.770;2023-04-25T11:02:31;9.20;99.90
54178;DHT22;40085;53.004;6.770;2023-04-25T11:04:57;9.20;99.90
54178;DHT22;40085;53.004;6.770;2023-04-25T11:07:52;9.30;99.90
54178;DHT22;40085;53.004;6.770;2023-04-25T11:10:18;9.40;99.90
54178;DHT22;40085;53.004;6.770;2023-04-25T11:12:46;9.50;94.80
54178;DHT22;40085;53.004;6.770;2023-04-25T11:15:13;9.40;1.00
54178;DHT22;40085;53.004;6.770;2023-04-25T11:17:39;9.30;99.90
54178;DHT22;40085;53.004;6.770;2023-04-25T11:20:07;9.30;99.90
54178;DHT22;40085;53.004;6.770;2023-04-25T11:22:38;9.30;99.90
54178;DHT22;40085;53.004;6.770;2023-04-25T11:25:09;9.30;1.00
54178;DHT22;40085;53.004;6.770;2023-04-25T11:27:55;9.20;99.90
54178;DHT22;40085;53.004;6.770;2023-04-25T11:30:24;9.10;99.90
54178;DHT22;40085;53.004;6.770;2023-04-25T11:32:49;8.90;99.90
54178;DHT22;40085;53.004;6.770;2023-04-25T11:35:15;8.70;1.00
54178;DHT22;40085;53.004;6.770;2023-04-25T11:37:42;8.50;99.90
54178;DHT22;40085;53.004;6.770;2023-04-25T11:40:09;8.50;1.00
54178;DHT22;40085;53.004;6.770;2023-04-25T11:42:39;8.30;99.90
54178;DHT22;40085;53.004;6.770;2023-04-25T11:45:06;8.10;1.00
54178;DHT22;40085;53.004;6.770;2023-04-25T11:47:32;7.90;1.00
54178;DHT22;40085;53.004;6.770;2023-04-25T11:50:02;8.00;99.90
54178;DHT22;40085;53.004;6.770;2023-04-25T11:52:56;8.10;99.90
54178;DHT22;40085;53.004;6.770;2023-04-25T11:55:22;8.20;9.20
54178;DHT22;40085;53.004;6.770;2023-04-25T11:57:48;8.40;99.90
54178;DHT22;40085;53.004;6.770;2023-04-25T12:00:20;8.70;99.90
54178;DHT22;40085;53.004;6.770;2023-04-25T12:02:47;8.90;99.90
54178;DHT22;40085;53.004;6.770;2023-04-25T12:05:16;9.00;80.30
54178;DHT22;40085;53.004;6.770;2023-04-25T12:07:42;9.30;99.90
54178;DHT22;40085;53.004;6.770;2023-04-25T12:10:08;9.50;99.90
54178;DHT22;40085;53.004;6.770;2023-04-25T12:12:36;9.70;99.90
54178;DHT22;40085;53.004;6.770;2023-04-25T12:15:12;9.50;99.90
54178;DHT22;40085;53.004;6.770;2023-04-25T12:17:47;9.40;99.90
54178;DHT22;40085;53.004;6.770;2023-04-25T12:20:15;9.50;99.90
54178;DHT22;40085;53.004;6.770;2023-04-25T12:22:42;9.50;7.70
54178;DHT22;40085;53.004;6.770;2023-04-25T12:25:33;9.60;80.10
54178;DHT22;40085;53.004;6.770;2023-04-25T12:28:24;9.70;1.00
54178;DHT22;40085;53.004;6.770;2023-04-25T12:33:26;9.80;1.00
54178;DHT22;40085;53.004;6.770;2023-04-25T12:35:53;9.90;1.00
54178;DHT22;40085;53.004;6.770;2023-04-25T12:38:26;10.00;1.00
54178;DHT22;40085;53.004;6.770;2023-04-25T12:40:52;10.50;1.00
54178;DHT22;40085;53.004;6.770;2023-04-25T12:43:18;11.00;99.90
54178;DHT22;40085;53.004;6.770;2023-04-25T12:45:45;11.00;40.40
54178;DHT22;40085;53.004;6.770;2023-04-25T12:48:12;10.70;52.50
54178;DHT22;40085;53.004;6.770;2023-04-25T12:50:37;10.70;40.20
54178;DHT22;40085;53.004;6.770;2023-04-25T12:53:03;10.30;46.90
54178;DHT22;40085;53.004;6.770;2023-04-25T12:55:29;10.10;5.80
54178;DHT22;40085;53.004;6.770;2023-04-25T12:57:55;10.50;36.80
54178;DHT22;40085;53.004;6.770;2023-04-25T13:00:20;10.40;34.70
54178;DHT22;40085;53.004;6.770;2023-04-25T13:02:46;10.30;22.20
54178;DHT22;40085;53.004;6.770;2023-04-25T13:05:12;10.10;1.00
54178;DHT22;40085;53.004;6.770;2023-04-25T13:07:38;9.40;1.00
54178;DHT22;40085;53.004;6.770;2023-04-25T13:10:05;9.60;1.00
54178;DHT22;40085;53.004;6.770;2023-04-25T13:12:31;9.40;1.00
54178;DHT22;40085;53.004;6.770;2023-04-25T13:14:57;9.40;1.00
54178;DHT22;40085;53.004;6.770;2023-04-25T13:17:22;9.20;1.00
54178;DHT22;40085;53.004;6.770;2023-04-25T13:19:48;9.30;1.00
54178;DHT22;40085;53.004;6.770;2023-04-25T13:22:13;9.30;53.50
54178;DHT22;40085;53.004;6.770;2023-04-25T13:24:42;9.30;8.20
54178;DHT22;40085;53.004;6.770;2023-04-25T13:27:08;10.50;1.00
54178;DHT22;40085;53.004;6.770;2023-04-25T13:29:34;9.30;1.00
54178;DHT22;40085;53.004;6.770;2023-04-25T13:32:01;9.50;1.00
54178;DHT22;40085;53.004;6.770;2023-04-25T13:34:28;8.10;1.00
54178;DHT22;40085;53.004;6.770;2023-04-25T13:36:54;10.20;1.00
54178;DHT22;40085;53.004;6.770;2023-04-25T13:39:20;10.40;11.70
54178;DHT22;40085;53.004;6.770;2023-04-25T13:41:45;10.80;69.40
54178;DHT22;40085;53.004;6.770;2023-04-25T13:44:11;10.40;67.80
54178;DHT22;40085;53.004;6.770;2023-04-25T13:46:37;10.20;16.90
54178;DHT22;40085;53.004;6.770;2023-04-25T13:49:03;10.00;7.60
54178;DHT22;40085;53.004;6.770;2023-04-25T13:51:29;10.00;3.00
54178;DHT22;40085;53.004;6.770;2023-04-25T13:53:56;10.30;10.90
54178;DHT22;40085;53.004;6.770;2023-04-25T13:56:21;10.20;15.80
54178;DHT22;40085;53.004;6.770;2023-04-25T13:58:48;9.90;27.50
54178;DHT22;40085;53.004;6.770;2023-04-25T14:01:15;10.40;27.10
54178;DHT22;40085;53.004;6.770;2023-04-25T14:03:40;10.30;37.20
54178;DHT22;40085;53.004;6.770;2023-04-25T14:06:06;10.50;81.40
54178;DHT22;40085;53.004;6.770;2023-04-25T14:08:33;10.70;70.10
54178;DHT22;40085;53.004;6.770;2023-04-25T14:10:59;11.00;93.40
54178;DHT22;40085;53.004;6.770;2023-04-25T14:13:25;10.70;60.30
54178;DHT22;40085;53.004;6.770;2023-04-25T14:15:50;10.40;40.60
54178;DHT22;40085;53.004;6.770;2023-04-25T14:18:17;10.10;1.00
54178;DHT22;40085;53.004;6.770;2023-04-25T14:20:42;9.70;1.00
54178;DHT22;40085;53.004;6.770;2023-04-25T14:23:08;9.30;99.90
54178;DHT22;40085;53.004;6.770;2023-04-25T14:25:34;9.00;99.90
54178;DHT22;40085;53.004;6.770;2023-04-25T14:28:01;8.80;1.00
54178;DHT22;40085;53.004;6.770;2023-04-25T14:30:26;8.60;1.00
54178;DHT22;40085;53.004;6.770;2023-04-25T14:32:52;8.90;99.90
54178;DHT22;40085;53.004;6.770;2023-04-25T14:35:18;8.70;99.90
54178;DHT22;40085;53.004;6.770;2023-04-25T14:37:43;8.90;99.90
54178;DHT22;40085;53.004;6.770;2023-04-25T14:40:10;8.90;99.90
54178;DHT22;40085;53.004;6.770;2023-04-25T14:42:36;9.00;99.90
54178;DHT22;40085;53.004;6.770;2023-04-25T14:45:03;9.10;99.90
54178;DHT22;40085;53.004;6.770;2023-04-25T14:47:29;9.30;99.90
54178;DHT22;40085;53.004;6.770;2023-04-25T14:49:55;9.90;99.90
54178;DHT22;40085;53.004;6.770;2023-04-25T14:52:21;10.40;1.00
54178;DHT22;40085;53.004;6.770;2023-04-25T14:54:47;10.50;99.90
54178;DHT22;40085;53.004;6.770;2023-04-25T14:57:13;10.20;99.90
54178;DHT22;40085;53.004;6.770;2023-04-25T14:59:38;10.00;99.90
54178;DHT22;40085;53.004;6.770;2023-04-25T15:02:05;9.90;99.90
54178;DHT22;40085;53.004;6.770;2023-04-25T15:04:31;9.80;99.90
54178;DHT22;40085;53.004;6.770;2023-04-25T15:06:56;10.10;99.90
54178;DHT22;40085;53.004;6.770;2023-04-25T15:09:22;9.80;99.90
54178;DHT22;40085;53.004;6.770;2023-04-25T15:11:49;9.70;99.90
54178;DHT22;40085;53.004;6.770;2023-04-25T15:14:17;10.10;99.90
54178;DHT22;40085;53.004;6.770;2023-04-25T15:16:43;10.50;99.90
54178;DHT22;40085;53.004;6.770;2023-04-25T15:19:08;10.80;99.90
54178;DHT22;40085;53.004;6.770;2023-04-25T15:21:34;11.10;99.90
54178;DHT22;40085;53.004;6.770;2023-04-25T15:24:00;11.50;1.00
54178;DHT22;40085;53.004;6.770;2023-04-25T15:26:27;11.00;1.00
54178;DHT22;40085;53.004;6.770;2023-04-25T15:28:52;11.70;1.00
54178;DHT22;40085;53.004;6.770;2023-04-25T15:31:18;10.90;1.00
54178;DHT22;40085;53.004;6.770;2023-04-25T15:33:44;11.40;1.00
54178;DHT22;40085;53.004;6.770;2023-04-25T15:36:09;10.40;89.80
54178;DHT22;40085;53.004;6.770;2023-04-25T15:38:36;9.90;99.90
54178;DHT22;40085;53.004;6.770;2023-04-25T15:41:01;9.60;99.90
54178;DHT22;40085;53.004;6.770;2023-04-25T15:43:27;9.40;99.90
54178;DHT22;40085;53.004;6.770;2023-04-25T15:45:53;9.20;99.90
54178;DHT22;40085;53.004;6.770;2023-04-25T15:48:19;9.10;1.00
54178;DHT22;40085;53.004;6.770;2023-04-25T15:50:44;9.60;1.00
54178;DHT22;40085;53.004;6.770;2023-04-25T15:53:10;9.50;1.00
54178;DHT22;40085;53.004;6.770;2023-04-25T15:55:36;10.10;1.00
54178;DHT22;40085;53.004;6.770;2023-04-25T15:58:02;10.40;99.90
54178;DHT22;40085;53.004;6.770;2023-04-25T16:00:28;10.20;99.90
54178;DHT22;40085;53.004;6.770;2023-04-25T16:02:53;10.60;99.90
54178;DHT22;40085;53.004;6.770;2023-04-25T16:05:20;10.00;99.90